Sunday, May 27, 2018, 3:35 PM GMT
Back to Local

CYKF, Waterloo Well

Location: , , Canada Lat: 43.467
Local Time: 3:35 PM GMT (15:35 GMT) Lon: -80.383
Time Zone: GMT Elev: 1040 ft

Show me the last for .
Show Decoded

2018-05-27 15:00 METAR CYKF 271500Z AUTO 21005KT 7SM FEW012 23/20 A2993 RMK SLP134 DENSITY ALT
                 2200FT =
2018-05-27 14:55 METAR CYKF 271455Z AUTO 19008KT 170V230 7SM FEW012 23/20 A2993 RMK SLP133
                 DENSITY ALT 2200FT =
2018-05-27 14:45 METAR CYKF 271445Z AUTO 18007KT 160V220 5SM HZ SCT012 23/20 A2993 RMK SLP133
                 DENSITY ALT 2200FT =
2018-05-27 14:32 METAR CYKF 271432Z AUTO 20006KT 8SM SCT012 23/20 A2993 RMK SLP133 DENSITY ALT
                 2100FT =
2018-05-27 14:00 METAR CYKF 271400Z AUTO 19005KT 160V230 7SM OVC010 22/19 A2994 RMK SLP136
                 DENSITY ALT 2000FT =
2018-05-27 13:26 METAR CYKF 271326Z AUTO 20004KT 6SM HZ OVC010 21/18 A2994 RMK SLP136 DENSITY ALT
                 1900FT =
2018-05-27 13:17 METAR CYKF 271317Z AUTO 19005KT 6SM BR OVC008 20/18 A2994 RMK SLP136 DENSITY ALT
                 1800FT =
2018-05-27 13:00 METAR CYKF 271300Z AUTO 19003KT 160V220 5SM BR OVC006 20/18 A2994 RMK SLP136
                 DENSITY ALT 1800FT =
2018-05-27 12:00 METAR CYKF 271200Z AUTO 13004KT 4SM HZ BKN095 19/16 A2992 RMK SLP131 DENSITY ALT
                 1700FT =
2018-05-27 11:00 METAR CYKF 271100Z AUTO VRB02KT 3SM BR CLR 16/16 A2991 RMK SLP127 DENSITY ALT
                 1400FT =
2018-05-27 10:48 METAR CYKF 271048Z AUTO 07003KT 3SM BR CLR 15/15 A2991 RMK SLP125 DENSITY ALT
                 1300FT =
2018-05-27 10:34 METAR CYKF 271034Z AUTO 07003KT 2 1/2SM BR CLR 15/15 A2991 RMK SLP125 DENSITY
                 ALT 1200FT =
2018-05-27 10:00 METAR CYKF 271000Z AUTO 11002KT 3SM BR BKN095 15/15 A2990 RMK SLP123 DENSITY ALT
                 1300FT =
2018-05-27 09:41 METAR CYKF 270941Z AUTO VRB02KT 3SM BR OVC095 15/15 A2989 RMK SLP121 DENSITY ALT
                 1300FT =
2018-05-27 09:26 METAR CYKF 270926Z AUTO VRB02KT 2 1/4SM BR OVC095 15/15 A2989 RMK SLP117 DENSITY
                 ALT 1300FT =
2018-05-27 09:00 METAR CYKF 270900Z AUTO 04002KT 3SM BR OVC095 15/15 A2988 RMK SLP117 DENSITY ALT
                 1300FT =
2018-05-27 08:31 METAR CYKF 270831Z AUTO 07004KT 3SM BR OVC095 15/15 A2988 RMK SLP116 DENSITY ALT
                 1300FT =
2018-05-27 08:19 METAR CYKF 270819Z AUTO 08005KT 2 1/2SM BR OVC095 14/14 A2988 RMK SLP117 DENSITY
                 ALT 1200FT =
2018-05-27 08:00 METAR CYKF 270800Z AUTO 08004KT 3SM BR BKN095 14/14 A2988 RMK SLP117 DENSITY ALT
                 1200FT =
2018-05-27 07:47 METAR CYKF 270747Z AUTO 06003KT 3SM BR BKN095 14/14 A2988 RMK SLP117 DENSITY ALT
                 1200FT =
2018-05-27 07:31 METAR CYKF 270731Z AUTO 05003KT 2 1/2SM BR FEW095 SCT240 14/14 A2988 RMK SLP115
                 DENSITY ALT 1200FT =
2018-05-27 07:15 METAR CYKF 270715Z AUTO 00000KT 3SM BR BKN240 14/14 A2988 RMK SLP115 DENSITY ALT
                 1200FT
2018-05-27 07:09 METAR CYKF 270709Z AUTO VRB02KT 2 1/2SM BR BKN240 14/14 A2988 RMK SLP115 DENSITY
                 ALT 1100FT =
2018-05-27 07:00 METAR CYKF 270700Z AUTO 09002KT 5SM BR BKN240 14/14 A2987 RMK SLP112 DENSITY ALT
                 1200FT =
2018-05-27 06:34 METAR CYKF 270634Z AUTO 14004KT 130V190 5SM BR SCT240 14/13 A2987 RMK SLP112
                 DENSITY ALT 1100FT =
2018-05-27 06:17 METAR CYKF 270617Z AUTO 00000KT 6SM BR CLR 15/15 A2987 RMK SLP113 DENSITY ALT
                 1300FT =
2018-05-27 06:06 METAR CYKF 270606Z AUTO 00000KT 5SM BR CLR 15/15 A2988 RMK SLP114 DENSITY ALT
                 1300FT =
2018-05-27 06:00 METAR CYKF 270600Z AUTO 00000KT 7SM CLR 15/14 A2987 RMK SLP113 DENSITY ALT
                 1300FT =
2018-05-27 05:00 METAR CYKF 270500Z AUTO 05003KT 9SM CLR 16/15 A2988 RMK SLP115 DENSITY ALT
                 1400FT =
2018-05-27 04:00 METAR CYKF 270400Z AUTO 10005KT 9SM CLR 16/15 A2988 RMK SLP115 DENSITY ALT
                 1500FT =
2018-05-27 03:00 METAR CYKF 270300Z AUTO 11007KT 9SM BKN110 19/15 A2988 RMK SLP115 DENSITY ALT
                 1700FT =
2018-05-27 02:10 METAR CYKF 270210Z AUTO 13009KT 9SM BKN120 BKN140 20/16 A2987 RMK SLP113 DENSITY
                 ALT 1900FT
2018-05-27 02:00 METAR CYKF 270200Z AUTO 12006KT 9SM -RA BKN110 OVC140 20/16 A2987 RMK SLP112
                 DENSITY ALT 1900FT =
2018-05-27 01:24 METAR CYKF 270124Z AUTO 04004KT 360V060 9SM SCT150 21/16 A2985 RMK SLP106
                 DENSITY ALT 2000FT =
2018-05-27 01:13 METAR CYKF 270113Z AUTO 01006KT 8SM -RA BKN150 21/16 A2985 RMK SLP104 DENSITY
                 ALT 2000FT =
2018-05-27 01:00 METAR CYKF 270100Z AUTO 03006KT 010V070 9SM BKN150 21/16 A2984 RMK SLP103
                 DENSITY ALT 2000FT =
2018-05-27 00:00 METAR CYKF 270000Z AUTO 06011KT 9SM FEW100 BKN140 23/16 A2982 RMK LTNG DIST N NW
                 SLP097 DENSITY ALT 2300FT =
2018-05-26 23:00 METAR CYKF 262300Z AUTO 20008KT 9SM CLR 27/14 A2980 RMK SLP089 DENSITY ALT
                 2800FT =
2018-05-26 22:00 METAR CYKF 262200Z AUTO 20008KT 9SM OVC100 28/15 A2979 RMK SLP083 DENSITY ALT
                 2800FT =
2018-05-26 21:00 METAR CYKF 262100Z AUTO 21009KT 9SM CLR 28/15 A2979 RMK SLP083 DENSITY ALT
                 2900FT =
2018-05-26 20:00 METAR CYKF 262000Z AUTO 19012KT 9SM CLR 28/15 A2979 RMK SLP084 DENSITY ALT
                 2900FT =
2018-05-26 19:00 METAR CYKF 261900Z AUTO 18010KT 9SM FEW070 SCT210 28/16 A2981 RMK SLP089 DENSITY
                 ALT 2900FT =
2018-05-26 18:00 METAR CYKF 261800Z AUTO 19005KT 9SM SCT075 28/15 A2981 RMK SLP090 DENSITY ALT
                 2900FT =
2018-05-26 17:00 METAR CYKF 261700Z AUTO 17005KT 9SM SCT150 26/15 A2981 RMK SLP091 DENSITY ALT
                 2700FT =
2018-05-26 16:00 METAR CYKF 261600Z AUTO VRB02KT 9SM FEW140 BKN170 BKN200 OVC220 27/15 A2982 RMK
                 SLP092 DENSITY ALT 2700FT =

Support USWX by starting your Amazon purchase here.